Bangor, ME

8:44 AM EDT on August 28, 2015 (GMT -0400)
Essex St Hill | | Change Station
CLOSE
Current Station
Personal Weather Station
Location: Bangor, ME
Elevation: 208 ft
Nearby Weather Stations

Elev 208 ft 44.82 °N, 68.77 °W | Updated 20 seconds ago

Clear
Clear
63.3 °F
Feels Like 63.3 °F
N
3.0
Wind Variable Wind from NW
Gusts 11.0 mph

Today
High -- | Low -- °F
--% Chance of Precip.
Yesterday
High -- | Low -- °F
Precip. -- in
5:52 AM 7:19 PM
Waxing Gibbous, 98% visible
Pressure 30.09 in
Visibility 10.0 miles
Clouds Few 8000 ft
Dew Point 55 °F
Humidity 75%
Rainfall 0.00 in
Snow Depth Not available.
UV 1 out of 12
Pollen 7.40 out of 12
Air Quality Not available.
Flu Activity Not available.
METAR KBGR 281153Z 31006KT 10SM FEW080 17/13 A3010 RMK AO2 SLP190 T01670133 10167 20122 51014
Pressure 30.09 in
Visibility 10.0 miles
Clouds Few 8000 ft
Dew Point 55 °F
Humidity 75%
Rainfall 0.00 in
Snow Depth Not available.
UV 1 out of 12
Pollen 7.40 out of 12
Air Quality Not available.
Flu Activity Not available.
METAR KBGR 281153Z 31006KT 10SM FEW080 17/13 A3010 RMK AO2 SLP190 T01670133 10167 20122 51014

10-Day Weather Forecast

×

Almanac

Astronomy

Aug. 28, 2015 Rise Set
Actual Time
Civil Twilight
Nautical Twilight
Astronomical Twilight
Moon
Length of Visible Light
Length of Day
Tomorrow will be .
, % of the Moon is Illuminated

Today's Extremes

State Highs State Lows

Community

WunderPhotos

Upload Photos

1,850,373 photos uploaded!

WunderBlogs® & News

Nearby

Air Quality

  Air Quality AQ Index Pollutant
Not available.

Snow Depth

Station Depth Elevation

Earthquake Activity

City Distance Mag. Time & Date
Minimum magnitude displayed is 2.5.

Coastal Water Temperatures

Place Temperature

Stations

Nearby Weather Stations

Station Location Temp. Windchill Dew Point Humidity Wind Precip. Elev Updated Type